Wenonah, Illinois
Current Conditions -  °F | °C
As of 2:55 AM on Wednesday 26 Nov 2014 (Local Time) from KTAZ Reporting Station
Clear Clear  
Wind Chill: 17°   Ceiling: Unl
Heat Index: 25°   Visibility: 10mi
Dew Point: 23°   Wind: 7mph
Humidity: 93%   Direction: 140°SE
Pressure: 30.13"   Gusts: NA
Location:  39.3183°N, 89.2952°W
Report Text: KTAZ 260855Z AUTO 14006KT 10SM CLR M04/M05 A3013 RMK AO2
Loading
Personal Weather Stations






























Interactive Weather Map New forecast layout! Learn more

10-Day Weather Forecast

Advertisements
Track Severe Weather on mobile